Terminal Aerodrome Forecast
Issued by NWS

Home | Current Version | Previous Version | Text Only | Print | Product List | Glossary On
Versions: 1 2 3 4 5 6 7 8 9 10 11 12 13 14 15 16 17 18 19 20 21 22 23 24 25 26 27 28 29 30 31
233
FTUS45 KGJT 260106 AAA
TAFMTJ
TAF AMD
KMTJ 260106Z 2601/2624 24009KT P6SM SKC
     FM260230 13006KT P6SM SCT250
     FM261400 07005KT P6SM SCT250
     FM261700 35005KT P6SM SCT250
     FM262000 25009KT P6SM VCSH FEW080 BKN150
     FM262300 22009KT P6SM VCSH BKN080=

USA.gov is the U.S. government's official web portal to all federal, state and local government web resources and services.